Alexandra G — SY8484 — position and weather

sailwx.info

Track history (hours):
 
Tides and Currents Weather Stations Pressure Air Temp Water Temp Dewpoint Dewpoint Depression Visibility Wind Speed Wind Dir Waves Ship Positions

Alexandra G

Last reported at 2018-Apr-24 14:01 UTC. Time now 2018-Apr-24 14:42 UTC.
Position N 37°57' E 023°36'.

Length 74 m; draft 4.2 m.

Type: Ship (hazmat cat A). MMSI: 240688000.

Date/timePositionNaut miles runAvg speedWind from/ knotsBaromVisibWave heightAir tempDewpointWater temp
2018-Apr-24 14:01N 37°57' E 023°36'0 0.1
2018-Apr-24 13:31N 37°57' E 023°36'0 0.0
2018-Apr-24 13:00N 37°57' E 023°36'0 0.0
2018-Apr-24 12:31N 37°57' E 023°36'0 0.4
2018-Apr-24 12:00N 37°57' E 023°36'1 1.2
2018-Apr-24 11:30N 37°58' E 023°37'0 0.0
2018-Apr-24 11:01N 37°58' E 023°37'0 0.0
2018-Apr-24 10:30N 37°58' E 023°37'1 2.2
2018-Apr-24 10:01N 37°56' E 023°37'1 2.1
2018-Apr-24 09:30N 37°57' E 023°38'0 0.0
2018-Apr-24 09:01N 37°57' E 023°38'0 0.0
2018-Apr-24 08:30N 37°57' E 023°38'0 0.0
2018-Apr-24 08:00N 37°57' E 023°38'0 0.0
2018-Apr-24 07:30N 37°57' E 023°38'0 0.0
2018-Apr-24 07:00N 37°57' E 023°38'0 0.0
2018-Apr-24 06:31N 37°57' E 023°38'0 0.0
2018-Apr-24 05:58N 37°57' E 023°38'2 4.0
2018-Apr-24 05:30N 37°57' E 023°36'4 7.2
2018-Apr-24 05:01N 37°60' E 023°33'2 4.4
2018-Apr-24 04:30N 38°01' E 023°35'0 0.0
2018-Apr-24 04:01N 38°01' E 023°35'0 0.0
2018-Apr-24 03:30N 38°01' E 023°35'0 0.0
2018-Apr-24 03:00N 38°01' E 023°35'0 0.0
2018-Apr-24 02:29N 38°01' E 023°35'0 0.0
2018-Apr-24 02:00N 38°01' E 023°35'0 0.0
2018-Apr-24 01:30N 38°01' E 023°35'0 0.0
2018-Apr-24 01:00N 38°01' E 023°35'0 0.0
2018-Apr-24 00:31N 38°01' E 023°35'0 0.1
2018-Apr-24 00:00N 38°01' E 023°35'1 1.6
2018-Apr-23 23:29N 38°02' E 023°36'0 0.0
2018-Apr-23 22:59N 38°02' E 023°36'0 0.0
2018-Apr-23 22:29N 38°02' E 023°36'0 0.0
2018-Apr-23 22:00N 38°02' E 023°36'0 0.0
2018-Apr-23 21:29N 38°02' E 023°36'0 0.0
2018-Apr-23 20:59N 38°02' E 023°36'0 0.0
2018-Apr-23 20:29N 38°02' E 023°36'0 0.0
2018-Apr-23 19:59N 38°02' E 023°36'0 0.0
2018-Apr-23 19:29N 38°02' E 023°36'0 0.0
2018-Apr-23 18:59N 38°02' E 023°36'0 0.0
2018-Apr-23 18:29N 38°02' E 023°36'0 0.0
2018-Apr-23 17:59N 38°02' E 023°36'0 0.0
2018-Apr-23 17:29N 38°02' E 023°36'1 2.1
2018-Apr-23 17:00N 38°01' E 023°34'3 5.8
2018-Apr-23 16:29N 38°02' E 023°31'0 0.0
2018-Apr-23 15:59N 38°02' E 023°31'0 0.0
2018-Apr-23 15:29N 38°02' E 023°31'0 0.0
2018-Apr-23 14:59N 38°02' E 023°31'0 0.0
2018-Apr-23 14:29N 38°02' E 023°31'0 0.0
2018-Apr-23 13:59N 38°02' E 023°31'0 0.5
2018-Apr-23 13:31N 38°02' E 023°31'4 8.4
2018-Apr-23 13:00N 37°58' E 023°33'4 8.2
2018-Apr-23 12:31N 37°56' E 023°37'0 0.2
2018-Apr-23 12:00N 37°56' E 023°37'0 0.0
2018-Apr-23 11:30N 37°56' E 023°37'0 0.0
2018-Apr-23 11:00N 37°56' E 023°37'0 0.0
2018-Apr-23 10:30N 37°56' E 023°37'0 0.0
2018-Apr-23 10:00N 37°56' E 023°37'0 0.0
2018-Apr-23 09:30N 37°56' E 023°37'1 1.8
2018-Apr-23 09:01N 37°57' E 023°38'0 0.2
2018-Apr-23 08:28N 37°57' E 023°38'0 0.0
2018-Apr-23 07:58N 37°57' E 023°38'0 0.0
2018-Apr-23 07:28N 37°57' E 023°38'0 0.0
2018-Apr-23 06:58N 37°57' E 023°38'0 0.0
2018-Apr-23 06:25N 37°57' E 023°38'0 0.0
2018-Apr-23 05:55N 37°57' E 023°38'1 2.6
2018-Apr-23 05:30N 37°56' E 023°37'1 2.4
2018-Apr-23 05:00N 37°58' E 023°37'0 0.0
2018-Apr-23 04:30N 37°58' E 023°37'0 0.0
2018-Apr-23 04:00N 37°58' E 023°37'0 0.0
2018-Apr-23 03:30N 37°58' E 023°37'0 0.0
2018-Apr-23 03:00N 37°58' E 023°37'0 0.0
2018-Apr-23 02:30N 37°58' E 023°37'0 0.0
2018-Apr-23 02:00N 37°58' E 023°37'0 0.0
2018-Apr-23 01:30N 37°58' E 023°37'0 0.0
2018-Apr-23 01:00N 37°58' E 023°37'0 0.0
2018-Apr-23 00:30N 37°58' E 023°37'0 0.0
2018-Apr-23 00:00N 37°58' E 023°37'0 0.0
2018-Apr-22 23:30N 37°58' E 023°37'0 0.0
2018-Apr-22 23:00N 37°58' E 023°37'0 0.0
2018-Apr-22 22:30N 37°58' E 023°37'0 0.0
2018-Apr-22 22:00N 37°58' E 023°37'0 0.0
2018-Apr-22 21:30N 37°58' E 023°37'0 0.0
2018-Apr-22 21:00N 37°58' E 023°37'0 0.0
2018-Apr-22 20:30N 37°58' E 023°37'0 0.0
2018-Apr-22 20:00N 37°58' E 023°37'0 0.0
2018-Apr-22 19:30N 37°58' E 023°37'0 0.0
2018-Apr-22 19:00N 37°58' E 023°37'0 0.0
2018-Apr-22 18:30N 37°58' E 023°37'0 0.0
2018-Apr-22 18:00N 37°58' E 023°37'0 0.0
2018-Apr-22 17:27N 37°58' E 023°37'0 0.0
2018-Apr-22 17:00N 37°58' E 023°37'0 0.0
2018-Apr-22 16:30N 37°58' E 023°37'0 0.0
2018-Apr-22 16:00N 37°58' E 023°37'0 0.0
2018-Apr-22 15:30N 37°58' E 023°37'0 0.0
2018-Apr-22 15:00N 37°58' E 023°37'0 0.0
2018-Apr-22 14:30N 37°58' E 023°37'0 0.0
2018-Apr-22 14:00N 37°58' E 023°37'0 0.0
2018-Apr-22 13:30N 37°58' E 023°37'0 0.0
2018-Apr-22 13:00N 37°58' E 023°37'0 0.0
2018-Apr-22 12:30N 37°58' E 023°37'0 0.0
2018-Apr-22 12:00N 37°58' E 023°37'0 0.0
2018-Apr-22 11:30N 37°58' E 023°37'0 0.0
2018-Apr-22 11:00N 37°58' E 023°37'0 0.0
2018-Apr-22 10:30N 37°58' E 023°37'0 0.0
2018-Apr-22 10:00N 37°58' E 023°37'0 0.0
2018-Apr-22 09:30N 37°58' E 023°37'0 0.0
2018-Apr-22 09:00N 37°58' E 023°37'0 0.0
2018-Apr-22 08:27N 37°58' E 023°37'0 0.0
2018-Apr-22 08:00N 37°58' E 023°37'0 0.0
2018-Apr-22 07:30N 37°58' E 023°37'0 0.0
2018-Apr-22 07:00N 37°58' E 023°37'0 0.0
2018-Apr-22 06:30N 37°58' E 023°37'0 0.0
2018-Apr-22 06:00N 37°58' E 023°37'0 0.0
2018-Apr-22 05:30N 37°58' E 023°37'0 0.0
2018-Apr-22 05:00N 37°58' E 023°37'0 0.0
2018-Apr-22 04:30N 37°58' E 023°37'0 0.0
2018-Apr-22 04:00N 37°58' E 023°37'0 0.0
2018-Apr-22 03:30N 37°58' E 023°37'0 0.0
2018-Apr-22 03:00N 37°58' E 023°37'0 0.0
2018-Apr-22 02:30N 37°58' E 023°37'0 0.0
2018-Apr-22 02:00N 37°58' E 023°37'0 0.0
2018-Apr-22 01:30N 37°58' E 023°37'0 0.0
2018-Apr-22 01:00N 37°58' E 023°37'0 0.0
2018-Apr-22 00:30N 37°58' E 023°37'0 0.0
2018-Apr-22 00:00N 37°58' E 023°37'0 0.0
2018-Apr-21 23:27N 37°58' E 023°37'0 0.0
2018-Apr-21 23:00N 37°58' E 023°37'0 0.0
2018-Apr-21 22:30N 37°58' E 023°37'0 0.0
2018-Apr-21 22:00N 37°58' E 023°37'0 0.0
2018-Apr-21 21:30N 37°58' E 023°37'0 0.0
2018-Apr-21 21:00N 37°58' E 023°37'0 0.0
2018-Apr-21 20:30N 37°58' E 023°37'0 0.0
2018-Apr-21 19:57N 37°58' E 023°37'0 0.0
2018-Apr-21 19:30N 37°58' E 023°37'0 0.0
2018-Apr-21 19:00N 37°58' E 023°37'0 0.0
2018-Apr-21 18:30N 37°58' E 023°37'0 0.0
2018-Apr-21 18:00N 37°58' E 023°37'0 0.0
2018-Apr-21 17:27N 37°58' E 023°37'0 0.0
2018-Apr-21 17:00N 37°58' E 023°37'0 0.0
2018-Apr-21 16:30N 37°58' E 023°37'0 0.0
2018-Apr-21 16:00N 37°58' E 023°37'0 0.0
2018-Apr-21 15:30N 37°58' E 023°37'0 0.0
2018-Apr-21 15:00N 37°58' E 023°37'0 0.0
2018-Apr-21 14:30N 37°58' E 023°37'0 0.0
2018-Apr-21 14:00N 37°58' E 023°37'0 0.0
2018-Apr-21 13:30N 37°58' E 023°37'0 0.0
2018-Apr-21 13:00N 37°58' E 023°37'0 0.0
2018-Apr-21 12:30N 37°58' E 023°37'0 0.0
2018-Apr-21 12:00N 37°58' E 023°37'0 0.0
2018-Apr-21 11:30N 37°58' E 023°37'0 0.0
2018-Apr-21 11:00N 37°58' E 023°37'0 0.0
2018-Apr-21 10:30N 37°58' E 023°37'0 0.0
2018-Apr-21 10:00N 37°58' E 023°37'0 0.0
2018-Apr-21 09:30N 37°58' E 023°37'0 0.5
2018-Apr-21 09:00N 37°58' E 023°36'4 7.9
2018-Apr-21 08:31N 37°55' E 023°33'5 9.2
2018-Apr-21 08:00N 37°52' E 023°28'5 9.3
2018-Apr-21 07:30N 37°52' E 023°22'5 9.6
2018-Apr-21 07:00N 37°53' E 023°16'5 9.9
2018-Apr-21 06:30N 37°53' E 023°10'5 9.8
2018-Apr-21 06:00N 37°53' E 023°04'5 7.8
2018-Apr-21 05:19N 37°57' E 022°58'2 6.9
2018-Apr-21 05:00N 37°58' E 022°56'5 9.3
2018-Apr-21 04:30N 38°00' E 022°51'5 9.4
2018-Apr-21 04:00N 38°03' E 022°46'5 9.4
2018-Apr-21 03:29N 38°06' E 022°41'1 0.0
2018-Apr-19 15:32N 38°05' E 022°42'1 9.8
2018-Apr-19 15:23N 38°04' E 022°44'4 9.7
2018-Apr-19 14:58N 38°02' E 022°48'510.0
2018-Apr-19 14:30N 37°60' E 022°53'4 8.6
2018-Apr-19 14:00N 37°57' E 022°57'3 5.4
2018-Apr-19 13:28N 37°55' E 023°00'3 5.5
2018-Apr-19 13:00N 37°54' E 023°02'5 9.5
2018-Apr-19 12:30N 37°53' E 023°08'5 9.9
2018-Apr-19 12:00N 37°53' E 023°15'510.1
2018-Apr-19 11:30N 37°52' E 023°21'510.1
2018-Apr-19 11:00N 37°52' E 023°27'510.3
2018-Apr-19 10:30N 37°54' E 023°33'4 7.8
2018-Apr-19 10:00N 37°56' E 023°37'0 0.2
2018-Apr-19 09:30N 37°56' E 023°37'0 0.0
2018-Apr-19 09:00N 37°56' E 023°37'0 0.0
2018-Apr-19 08:30N 37°56' E 023°37'0 0.0
2018-Apr-19 08:00N 37°56' E 023°37'0 0.0
2018-Apr-19 07:30N 37°56' E 023°37'0 0.0
2018-Apr-19 07:00N 37°56' E 023°37'0 0.0
2018-Apr-19 06:30N 37°56' E 023°37'0 0.0
2018-Apr-19 05:59N 37°56' E 023°37'2 3.1
2018-Apr-19 05:30N 37°57' E 023°37'0 0.2
2018-Apr-19 05:00N 37°58' E 023°37'0 0.0
2018-Apr-19 04:30N 37°58' E 023°37'0 0.0
2018-Apr-19 04:00N 37°58' E 023°37'0 0.0
2018-Apr-19 03:30N 37°58' E 023°37'0 0.0
2018-Apr-19 03:00N 37°57' E 023°37'0 0.0
2018-Apr-19 02:30N 37°58' E 023°37'0 0.0
2018-Apr-19 02:00N 37°58' E 023°37'0 0.0
2018-Apr-19 01:30N 37°58' E 023°37'0 0.0
2018-Apr-19 01:00N 37°58' E 023°37'0 0.0
2018-Apr-19 00:30N 37°58' E 023°37'0 0.0
2018-Apr-19 00:00N 37°58' E 023°37'0 0.0
2018-Apr-18 23:30N 37°58' E 023°37'2 4.5
2018-Apr-18 23:00N 37°56' E 023°35'3 5.7
2018-Apr-18 22:30N 37°53' E 023°33'0 0.0
2018-Apr-18 22:00N 37°53' E 023°33'0 0.0
2018-Apr-18 21:30N 37°53' E 023°33'0 0.0
2018-Apr-18 21:00N 37°53' E 023°33'0 0.0
2018-Apr-18 20:30N 37°53' E 023°33'0 0.0
2018-Apr-18 20:00N 37°53' E 023°33'0 0.1
2018-Apr-18 19:30N 37°53' E 023°33'0 0.0
2018-Apr-18 19:00N 37°53' E 023°33'2 3.5
2018-Apr-18 18:30N 37°55' E 023°34'2 4.2
2018-Apr-18 17:56N 37°57' E 023°36'1 2.0
2018-Apr-18 17:30N 37°58' E 023°37'0 0.0
2018-Apr-18 17:00N 37°58' E 023°37'0 0.0
2018-Apr-18 16:30N 37°58' E 023°37'0 0.0
2018-Apr-18 16:00N 37°58' E 023°37'0 0.0
2018-Apr-18 15:30N 37°58' E 023°37'0 0.0
2018-Apr-18 15:00N 37°58' E 023°37'0 0.0
2018-Apr-18 14:30N 37°58' E 023°37'0 0.0
2018-Apr-18 14:00N 37°58' E 023°37'0 0.0
2018-Apr-18 13:30N 37°58' E 023°37'0 0.0
2018-Apr-18 13:01N 37°58' E 023°37'0 0.0
2018-Apr-18 12:31N 37°58' E 023°37'0 0.0
2018-Apr-18 12:00N 37°58' E 023°37'0 0.0
2018-Apr-18 11:30N 37°58' E 023°37'0 0.0
2018-Apr-18 11:00N 37°58' E 023°37'0 0.0
2018-Apr-18 10:29N 37°58' E 023°37'0 0.0
2018-Apr-18 10:00N 37°58' E 023°37'0 0.0
2018-Apr-18 09:30N 37°58' E 023°37'0 0.0
2018-Apr-18 09:01N 37°58' E 023°37'0 0.0
2018-Apr-18 08:30N 37°58' E 023°37'0 0.0
2018-Apr-18 08:00N 37°58' E 023°37'0 0.0
2018-Apr-18 07:30N 37°58' E 023°37'0 0.0
2018-Apr-18 07:01N 37°58' E 023°37'0 0.0
2018-Apr-18 06:29N 37°58' E 023°37'0 0.0
2018-Apr-18 06:01N 37°58' E 023°37'0 0.0
2018-Apr-18 05:30N 37°58' E 023°37'0 0.0
2018-Apr-18 05:00N 37°58' E 023°37'0 0.0
2018-Apr-18 04:30N 37°58' E 023°37'0 0.0
2018-Apr-18 04:00N 37°58' E 023°37'0 0.0
2018-Apr-18 03:31N 37°58' E 023°37'0 0.0
2018-Apr-18 03:01N 37°58' E 023°37'0 0.0
2018-Apr-18 02:30N 37°58' E 023°37'0 0.0
2018-Apr-18 02:00N 37°58' E 023°37'0 0.0
2018-Apr-18 01:30N 37°58' E 023°37'0 0.0
2018-Apr-18 01:01N 37°58' E 023°37'0 0.0
2018-Apr-18 00:30N 37°58' E 023°37'0 0.0
2018-Apr-18 00:00N 37°58' E 023°37'0 0.0
2018-Apr-17 23:30N 37°58' E 023°37'0 0.0
2018-Apr-17 23:01N 37°58' E 023°37'0 0.0
2018-Apr-17 22:31N 37°58' E 023°37'0 0.0
2018-Apr-17 22:01N 37°58' E 023°37'0 0.0
2018-Apr-17 21:31N 37°58' E 023°37'0 0.0
2018-Apr-17 21:00N 37°58' E 023°37'0 0.0
2018-Apr-17 20:30N 37°58' E 023°37'0 0.0
2018-Apr-17 20:00N 37°58' E 023°37'0 0.0
2018-Apr-17 19:31N 37°58' E 023°37'0 0.0
2018-Apr-17 19:00N 37°58' E 023°37'0 0.0
2018-Apr-17 18:31N 37°58' E 023°37'0 0.0
2018-Apr-17 18:00N 37°58' E 023°37'0 0.0
2018-Apr-17 17:30N 37°58' E 023°37'0 0.0
2018-Apr-17 17:01N 37°58' E 023°37'0 0.0
2018-Apr-17 16:31N 37°58' E 023°37'2 3.3
2018-Apr-17 16:00N 37°57' E 023°35'4 8.1
2018-Apr-17 15:30N 38°01' E 023°32'2 4.1
2018-Apr-17 15:00N 38°02' E 023°31'0 0.0
2018-Apr-17 14:30N 38°02' E 023°31'0 0.0
2018-Apr-17 14:00N 38°02' E 023°31'0 0.0
2018-Apr-17 13:30N 38°02' E 023°31'0 0.0
2018-Apr-17 13:00N 38°02' E 023°31'0 0.0
2018-Apr-17 12:30N 38°02' E 023°31'0 0.0
2018-Apr-17 12:00N 38°02' E 023°31'0 0.0
2018-Apr-17 11:31N 38°02' E 023°31'0 0.0
2018-Apr-17 11:01N 38°02' E 023°31'0 0.0
2018-Apr-17 10:30N 38°02' E 023°31'0 0.0
2018-Apr-17 10:00N 38°02' E 023°31'0 0.0
2018-Apr-17 09:30N 38°02' E 023°31'0 0.0
2018-Apr-17 09:01N 38°02' E 023°31'0 0.0
2018-Apr-17 08:30N 38°02' E 023°31'0 0.0
2018-Apr-17 08:00N 38°02' E 023°31'0 0.0
2018-Apr-17 07:30N 38°02' E 023°31'0 0.0
2018-Apr-17 07:00N 38°02' E 023°31'0 0.0
2018-Apr-17 06:30N 38°02' E 023°31'0 0.0
2018-Apr-17 06:01N 38°02' E 023°31'0 0.0
2018-Apr-17 05:30N 38°02' E 023°31'0 0.0
2018-Apr-17 05:00N 38°02' E 023°31'1 2.7
2018-Apr-17 04:30N 38°01' E 023°32'4 8.8
2018-Apr-17 04:00N 37°57' E 023°34'2 4.0
2018-Apr-17 03:30N 37°58' E 023°37'0 0.0
2018-Apr-17 03:01N 37°58' E 023°37'0 0.0
2018-Apr-17 02:30N 37°58' E 023°37'0 0.0
2018-Apr-17 02:00N 37°58' E 023°37'0 0.0
2018-Apr-17 01:31N 37°58' E 023°37'0 0.0
2018-Apr-17 01:00N 37°58' E 023°37'0 0.0
2018-Apr-17 00:30N 37°58' E 023°37'0 0.0
2018-Apr-17 00:00N 37°58' E 023°37'0 0.0
2018-Apr-16 23:30N 37°58' E 023°37'0 0.0
2018-Apr-16 23:00N 37°58' E 023°37'0 0.0
2018-Apr-16 22:30N 37°58' E 023°37'0 0.0
2018-Apr-16 22:00N 37°58' E 023°37'0 0.0
2018-Apr-16 21:31N 37°58' E 023°37'0 0.0
2018-Apr-16 21:00N 37°58' E 023°37'0 0.0
2018-Apr-16 20:31N 37°58' E 023°37'0 0.0
2018-Apr-16 20:00N 37°58' E 023°37'0 0.0
2018-Apr-16 19:31N 37°58' E 023°37'0 0.0
2018-Apr-16 19:00N 37°58' E 023°37'0 0.0
2018-Apr-16 18:31N 37°58' E 023°37'0 0.0
2018-Apr-16 18:00N 37°58' E 023°37'0 0.0
2018-Apr-16 17:30N 37°58' E 023°37'0 0.0
2018-Apr-16 17:00N 37°58' E 023°37'0 0.0
2018-Apr-16 16:30N 37°58' E 023°37'0 0.0
2018-Apr-16 16:01N 37°58' E 023°37'0 0.0
2018-Apr-16 15:30N 37°58' E 023°37'0 0.0
2018-Apr-16 15:00N 37°58' E 023°37'0 0.0
2018-Apr-16 14:30N 37°58' E 023°37'1 2.7
2018-Apr-16 14:01N 37°56' E 023°37'1 1.5
2018-Apr-16 13:31N 37°57' E 023°38'0 0.0
2018-Apr-16 13:00N 37°57' E 023°38'0 0.0
2018-Apr-16 12:30N 37°57' E 023°38'0 0.0
2018-Apr-16 12:00N 37°57' E 023°38'0 0.4
2018-Apr-16 11:30N 37°56' E 023°38'0 0.9
2018-Apr-16 11:01N 37°57' E 023°38'0 0.0
2018-Apr-16 10:31N 37°57' E 023°38'0 0.0
2018-Apr-16 10:00N 37°57' E 023°38'0 0.0
2018-Apr-16 09:30N 37°57' E 023°38'0 0.0
2018-Apr-16 09:01N 37°57' E 023°38'0 0.6
2018-Apr-16 08:30N 37°57' E 023°38'0 0.3
2018-Apr-16 08:00N 37°57' E 023°38'0 0.0
2018-Apr-16 07:31N 37°57' E 023°38'0 0.0
2018-Apr-16 07:00N 37°57' E 023°38'0 0.0
2018-Apr-16 06:31N 37°57' E 023°38'1 1.7
2018-Apr-16 06:00N 37°56' E 023°37'1 0.1
2018-Apr-15 21:03N 37°58' E 023°37'0 0.0
2018-Apr-15 20:42N 37°58' E 023°37'0 0.0
2018-Apr-15 14:30N 37°58' E 023°37'2 3.8
2018-Apr-15 14:00N 37°57' E 023°34'4 8.2
2018-Apr-15 13:30N 38°01' E 023°32'0 0.5
2018-Apr-15 13:00N 38°01' E 023°32'0 0.0
2018-Apr-15 12:30N 38°01' E 023°32'0 0.1
2018-Apr-15 12:00N 38°01' E 023°32'0 0.8
2018-Apr-15 11:30N 38°01' E 023°33'4 7.4
2018-Apr-15 11:00N 37°57' E 023°33'3 0.2
2018-Apr-14 18:16N 37°58' E 023°37'0 1.9
2018-Apr-14 18:00N 37°57' E 023°36'3 6.4
2018-Apr-14 17:30N 37°59' E 023°33'3 6.5
2018-Apr-14 17:00N 38°02' E 023°36'0 0.0
2018-Apr-14 16:30N 38°02' E 023°36'0 0.0
2018-Apr-14 16:00N 38°02' E 023°36'0 0.0
2018-Apr-14 15:31N 38°02' E 023°36'0 0.0
2018-Apr-14 15:00N 38°02' E 023°36'0 0.0
2018-Apr-14 14:31N 38°02' E 023°36'0 0.0
2018-Apr-14 14:01N 38°02' E 023°36'  
Track history (hours):
 
Tides and Currents Weather Stations Pressure Air Temp Water Temp Dewpoint Dewpoint Depression Visibility Wind Speed Wind Dir Waves Ship Positions

Alexandra G

Last reported at 2018-Apr-24 14:01 UTC. Time now 2018-Apr-24 14:42 UTC.
Position N 37°57' E 023°36'.

Length 74 m; draft 4.2 m.

Type: Ship (hazmat cat A). MMSI: 240688000.

Date/timePositionNaut miles runAvg speedWind from/ knotsBaromVisibWave heightAir tempDewpointWater temp
2018-Apr-24 14:01N 37°57' E 023°36'0 0.1
2018-Apr-24 13:31N 37°57' E 023°36'0 0.0
2018-Apr-24 13:00N 37°57' E 023°36'0 0.0
2018-Apr-24 12:31N 37°57' E 023°36'0 0.4
2018-Apr-24 12:00N 37°57' E 023°36'1 1.2
2018-Apr-24 11:30N 37°58' E 023°37'0 0.0
2018-Apr-24 11:01N 37°58' E 023°37'0 0.0
2018-Apr-24 10:30N 37°58' E 023°37'1 2.2
2018-Apr-24 10:01N 37°56' E 023°37'1 2.1
2018-Apr-24 09:30N 37°57' E 023°38'0 0.0
2018-Apr-24 09:01N 37°57' E 023°38'0 0.0
2018-Apr-24 08:30N 37°57' E 023°38'0 0.0
2018-Apr-24 08:00N 37°57' E 023°38'0 0.0
2018-Apr-24 07:30N 37°57' E 023°38'0 0.0
2018-Apr-24 07:00N 37°57' E 023°38'0 0.0
2018-Apr-24 06:31N 37°57' E 023°38'0 0.0
2018-Apr-24 05:58N 37°57' E 023°38'2 4.0
2018-Apr-24 05:30N 37°57' E 023°36'4 7.2
2018-Apr-24 05:01N 37°60' E 023°33'2 4.4
2018-Apr-24 04:30N 38°01' E 023°35'0 0.0
2018-Apr-24 04:01N 38°01' E 023°35'0 0.0
2018-Apr-24 03:30N 38°01' E 023°35'0 0.0
2018-Apr-24 03:00N 38°01' E 023°35'0 0.0
2018-Apr-24 02:29N 38°01' E 023°35'0 0.0
2018-Apr-24 02:00N 38°01' E 023°35'0 0.0
2018-Apr-24 01:30N 38°01' E 023°35'0 0.0
2018-Apr-24 01:00N 38°01' E 023°35'0 0.0
2018-Apr-24 00:31N 38°01' E 023°35'0 0.1
2018-Apr-24 00:00N 38°01' E 023°35'1 1.6
2018-Apr-23 23:29N 38°02' E 023°36'0 0.0
2018-Apr-23 22:59N 38°02' E 023°36'0 0.0
2018-Apr-23 22:29N 38°02' E 023°36'0 0.0
2018-Apr-23 22:00N 38°02' E 023°36'0 0.0
2018-Apr-23 21:29N 38°02' E 023°36'0 0.0
2018-Apr-23 20:59N 38°02' E 023°36'0 0.0
2018-Apr-23 20:29N 38°02' E 023°36'0 0.0
2018-Apr-23 19:59N 38°02' E 023°36'0 0.0
2018-Apr-23 19:29N 38°02' E 023°36'0 0.0
2018-Apr-23 18:59N 38°02' E 023°36'0 0.0
2018-Apr-23 18:29N 38°02' E 023°36'0 0.0
2018-Apr-23 17:59N 38°02' E 023°36'0 0.0
2018-Apr-23 17:29N 38°02' E 023°36'1 2.1
2018-Apr-23 17:00N 38°01' E 023°34'3 5.8
2018-Apr-23 16:29N 38°02' E 023°31'0 0.0
2018-Apr-23 15:59N 38°02' E 023°31'0 0.0
2018-Apr-23 15:29N 38°02' E 023°31'0 0.0
2018-Apr-23 14:59N 38°02' E 023°31'0 0.0
2018-Apr-23 14:29N 38°02' E 023°31'0 0.0
2018-Apr-23 13:59N 38°02' E 023°31'0 0.5
2018-Apr-23 13:31N 38°02' E 023°31'4 8.4
2018-Apr-23 13:00N 37°58' E 023°33'4 8.2
2018-Apr-23 12:31N 37°56' E 023°37'0 0.2
2018-Apr-23 12:00N 37°56' E 023°37'0 0.0
2018-Apr-23 11:30N 37°56' E 023°37'0 0.0
2018-Apr-23 11:00N 37°56' E 023°37'0 0.0
2018-Apr-23 10:30N 37°56' E 023°37'0 0.0
2018-Apr-23 10:00N 37°56' E 023°37'0 0.0
2018-Apr-23 09:30N 37°56' E 023°37'1 1.8
2018-Apr-23 09:01N 37°57' E 023°38'0 0.2
2018-Apr-23 08:28N 37°57' E 023°38'0 0.0
2018-Apr-23 07:58N 37°57' E 023°38'0 0.0
2018-Apr-23 07:28N 37°57' E 023°38'0 0.0
2018-Apr-23 06:58N 37°57' E 023°38'0 0.0
2018-Apr-23 06:25N 37°57' E 023°38'0 0.0
2018-Apr-23 05:55N 37°57' E 023°38'1 2.6
2018-Apr-23 05:30N 37°56' E 023°37'1 2.4
2018-Apr-23 05:00N 37°58' E 023°37'0 0.0
2018-Apr-23 04:30N 37°58' E 023°37'0 0.0
2018-Apr-23 04:00N 37°58' E 023°37'0 0.0
2018-Apr-23 03:30N 37°58' E 023°37'0 0.0
2018-Apr-23 03:00N 37°58' E 023°37'0 0.0
2018-Apr-23 02:30N 37°58' E 023°37'0 0.0
2018-Apr-23 02:00N 37°58' E 023°37'0 0.0
2018-Apr-23 01:30N 37°58' E 023°37'0 0.0
2018-Apr-23 01:00N 37°58' E 023°37'0 0.0
2018-Apr-23 00:30N 37°58' E 023°37'0 0.0
2018-Apr-23 00:00N 37°58' E 023°37'0 0.0
2018-Apr-22 23:30N 37°58' E 023°37'0 0.0
2018-Apr-22 23:00N 37°58' E 023°37'0 0.0
2018-Apr-22 22:30N 37°58' E 023°37'0 0.0
2018-Apr-22 22:00N 37°58' E 023°37'0 0.0
2018-Apr-22 21:30N 37°58' E 023°37'0 0.0
2018-Apr-22 21:00N 37°58' E 023°37'0 0.0
2018-Apr-22 20:30N 37°58' E 023°37'0 0.0
2018-Apr-22 20:00N 37°58' E 023°37'0 0.0
2018-Apr-22 19:30N 37°58' E 023°37'0 0.0
2018-Apr-22 19:00N 37°58' E 023°37'0 0.0
2018-Apr-22 18:30N 37°58' E 023°37'0 0.0
2018-Apr-22 18:00N 37°58' E 023°37'0 0.0
2018-Apr-22 17:27N 37°58' E 023°37'0 0.0
2018-Apr-22 17:00N 37°58' E 023°37'0 0.0
2018-Apr-22 16:30N 37°58' E 023°37'0 0.0
2018-Apr-22 16:00N 37°58' E 023°37'0 0.0
2018-Apr-22 15:30N 37°58' E 023°37'0 0.0
2018-Apr-22 15:00N 37°58' E 023°37'0 0.0
2018-Apr-22 14:30N 37°58' E 023°37'0 0.0
2018-Apr-22 14:00N 37°58' E 023°37'0 0.0
2018-Apr-22 13:30N 37°58' E 023°37'0 0.0
2018-Apr-22 13:00N 37°58' E 023°37'0 0.0
2018-Apr-22 12:30N 37°58' E 023°37'0 0.0
2018-Apr-22 12:00N 37°58' E 023°37'0 0.0
2018-Apr-22 11:30N 37°58' E 023°37'0 0.0
2018-Apr-22 11:00N 37°58' E 023°37'0 0.0
2018-Apr-22 10:30N 37°58' E 023°37'0 0.0
2018-Apr-22 10:00N 37°58' E 023°37'0 0.0
2018-Apr-22 09:30N 37°58' E 023°37'0 0.0
2018-Apr-22 09:00N 37°58' E 023°37'0 0.0
2018-Apr-22 08:27N 37°58' E 023°37'0 0.0
2018-Apr-22 08:00N 37°58' E 023°37'0 0.0
2018-Apr-22 07:30N 37°58' E 023°37'0 0.0
2018-Apr-22 07:00N 37°58' E 023°37'0 0.0
2018-Apr-22 06:30N 37°58' E 023°37'0 0.0
2018-Apr-22 06:00N 37°58' E 023°37'0 0.0
2018-Apr-22 05:30N 37°58' E 023°37'0 0.0
2018-Apr-22 05:00N 37°58' E 023°37'0 0.0
2018-Apr-22 04:30N 37°58' E 023°37'0 0.0
2018-Apr-22 04:00N 37°58' E 023°37'0 0.0
2018-Apr-22 03:30N 37°58' E 023°37'0 0.0
2018-Apr-22 03:00N 37°58' E 023°37'0 0.0
2018-Apr-22 02:30N 37°58' E 023°37'0 0.0
2018-Apr-22 02:00N 37°58' E 023°37'0 0.0
2018-Apr-22 01:30N 37°58' E 023°37'0 0.0
2018-Apr-22 01:00N 37°58' E 023°37'0 0.0
2018-Apr-22 00:30N 37°58' E 023°37'0 0.0
2018-Apr-22 00:00N 37°58' E 023°37'0 0.0
2018-Apr-21 23:27N 37°58' E 023°37'0 0.0
2018-Apr-21 23:00N 37°58' E 023°37'0 0.0
2018-Apr-21 22:30N 37°58' E 023°37'0 0.0
2018-Apr-21 22:00N 37°58' E 023°37'0 0.0
2018-Apr-21 21:30N 37°58' E 023°37'0 0.0
2018-Apr-21 21:00N 37°58' E 023°37'0 0.0
2018-Apr-21 20:30N 37°58' E 023°37'0 0.0
2018-Apr-21 19:57N 37°58' E 023°37'0 0.0
2018-Apr-21 19:30N 37°58' E 023°37'0 0.0
2018-Apr-21 19:00N 37°58' E 023°37'0 0.0
2018-Apr-21 18:30N 37°58' E 023°37'0 0.0
2018-Apr-21 18:00N 37°58' E 023°37'0 0.0
2018-Apr-21 17:27N 37°58' E 023°37'0 0.0
2018-Apr-21 17:00N 37°58' E 023°37'0 0.0
2018-Apr-21 16:30N 37°58' E 023°37'0 0.0
2018-Apr-21 16:00N 37°58' E 023°37'0 0.0
2018-Apr-21 15:30N 37°58' E 023°37'0 0.0
2018-Apr-21 15:00N 37°58' E 023°37'0 0.0
2018-Apr-21 14:30N 37°58' E 023°37'0 0.0
2018-Apr-21 14:00N 37°58' E 023°37'0 0.0
2018-Apr-21 13:30N 37°58' E 023°37'0 0.0
2018-Apr-21 13:00N 37°58' E 023°37'0 0.0
2018-Apr-21 12:30N 37°58' E 023°37'0 0.0
2018-Apr-21 12:00N 37°58' E 023°37'0 0.0
2018-Apr-21 11:30N 37°58' E 023°37'0 0.0
2018-Apr-21 11:00N 37°58' E 023°37'0 0.0
2018-Apr-21 10:30N 37°58' E 023°37'0 0.0
2018-Apr-21 10:00N 37°58' E 023°37'0 0.0
2018-Apr-21 09:30N 37°58' E 023°37'0 0.5
2018-Apr-21 09:00N 37°58' E 023°36'4 7.9
2018-Apr-21 08:31N 37°55' E 023°33'5 9.2
2018-Apr-21 08:00N 37°52' E 023°28'5 9.3
2018-Apr-21 07:30N 37°52' E 023°22'5 9.6
2018-Apr-21 07:00N 37°53' E 023°16'5 9.9
2018-Apr-21 06:30N 37°53' E 023°10'5 9.8
2018-Apr-21 06:00N 37°53' E 023°04'5 7.8
2018-Apr-21 05:19N 37°57' E 022°58'2 6.9
2018-Apr-21 05:00N 37°58' E 022°56'5 9.3
2018-Apr-21 04:30N 38°00' E 022°51'5 9.4
2018-Apr-21 04:00N 38°03' E 022°46'5 9.4
2018-Apr-21 03:29N 38°06' E 022°41'1 0.0
2018-Apr-19 15:32N 38°05' E 022°42'1 9.8
2018-Apr-19 15:23N 38°04' E 022°44'4 9.7
2018-Apr-19 14:58N 38°02' E 022°48'510.0
2018-Apr-19 14:30N 37°60' E 022°53'4 8.6
2018-Apr-19 14:00N 37°57' E 022°57'3 5.4
2018-Apr-19 13:28N 37°55' E 023°00'3 5.5
2018-Apr-19 13:00N 37°54' E 023°02'5 9.5
2018-Apr-19 12:30N 37°53' E 023°08'5 9.9
2018-Apr-19 12:00N 37°53' E 023°15'510.1
2018-Apr-19 11:30N 37°52' E 023°21'510.1
2018-Apr-19 11:00N 37°52' E 023°27'510.3
2018-Apr-19 10:30N 37°54' E 023°33'4 7.8
2018-Apr-19 10:00N 37°56' E 023°37'0 0.2
2018-Apr-19 09:30N 37°56' E 023°37'0 0.0
2018-Apr-19 09:00N 37°56' E 023°37'0 0.0
2018-Apr-19 08:30N 37°56' E 023°37'0 0.0
2018-Apr-19 08:00N 37°56' E 023°37'0 0.0
2018-Apr-19 07:30N 37°56' E 023°37'0 0.0
2018-Apr-19 07:00N 37°56' E 023°37'0 0.0
2018-Apr-19 06:30N 37°56' E 023°37'0 0.0
2018-Apr-19 05:59N 37°56' E 023°37'2 3.1
2018-Apr-19 05:30N 37°57' E 023°37'0 0.2
2018-Apr-19 05:00N 37°58' E 023°37'0 0.0
2018-Apr-19 04:30N 37°58' E 023°37'0 0.0
2018-Apr-19 04:00N 37°58' E 023°37'0 0.0
2018-Apr-19 03:30N 37°58' E 023°37'0 0.0
2018-Apr-19 03:00N 37°57' E 023°37'0 0.0
2018-Apr-19 02:30N 37°58' E 023°37'0 0.0
2018-Apr-19 02:00N 37°58' E 023°37'0 0.0
2018-Apr-19 01:30N 37°58' E 023°37'0 0.0
2018-Apr-19 01:00N 37°58' E 023°37'0 0.0
2018-Apr-19 00:30N 37°58' E 023°37'0 0.0
2018-Apr-19 00:00N 37°58' E 023°37'0 0.0
2018-Apr-18 23:30N 37°58' E 023°37'2 4.5
2018-Apr-18 23:00N 37°56' E 023°35'3 5.7
2018-Apr-18 22:30N 37°53' E 023°33'0 0.0
2018-Apr-18 22:00N 37°53' E 023°33'0 0.0
2018-Apr-18 21:30N 37°53' E 023°33'0 0.0
2018-Apr-18 21:00N 37°53' E 023°33'0 0.0
2018-Apr-18 20:30N 37°53' E 023°33'0 0.0
2018-Apr-18 20:00N 37°53' E 023°33'0 0.1
2018-Apr-18 19:30N 37°53' E 023°33'0 0.0
2018-Apr-18 19:00N 37°53' E 023°33'2 3.5
2018-Apr-18 18:30N 37°55' E 023°34'2 4.2
2018-Apr-18 17:56N 37°57' E 023°36'1 2.0
2018-Apr-18 17:30N 37°58' E 023°37'0 0.0
2018-Apr-18 17:00N 37°58' E 023°37'0 0.0
2018-Apr-18 16:30N 37°58' E 023°37'0 0.0
2018-Apr-18 16:00N 37°58' E 023°37'0 0.0
2018-Apr-18 15:30N 37°58' E 023°37'0 0.0
2018-Apr-18 15:00N 37°58' E 023°37'0 0.0
2018-Apr-18 14:30N 37°58' E 023°37'0 0.0
2018-Apr-18 14:00N 37°58' E 023°37'0 0.0
2018-Apr-18 13:30N 37°58' E 023°37'0 0.0
2018-Apr-18 13:01N 37°58' E 023°37'0 0.0
2018-Apr-18 12:31N 37°58' E 023°37'0 0.0
2018-Apr-18 12:00N 37°58' E 023°37'0 0.0
2018-Apr-18 11:30N 37°58' E 023°37'0 0.0
2018-Apr-18 11:00N 37°58' E 023°37'0 0.0
2018-Apr-18 10:29N 37°58' E 023°37'0 0.0
2018-Apr-18 10:00N 37°58' E 023°37'0 0.0
2018-Apr-18 09:30N 37°58' E 023°37'0 0.0
2018-Apr-18 09:01N 37°58' E 023°37'0 0.0
2018-Apr-18 08:30N 37°58' E 023°37'0 0.0
2018-Apr-18 08:00N 37°58' E 023°37'0 0.0
2018-Apr-18 07:30N 37°58' E 023°37'0 0.0
2018-Apr-18 07:01N 37°58' E 023°37'0 0.0
2018-Apr-18 06:29N 37°58' E 023°37'0 0.0
2018-Apr-18 06:01N 37°58' E 023°37'0 0.0
2018-Apr-18 05:30N 37°58' E 023°37'0 0.0
2018-Apr-18 05:00N 37°58' E 023°37'0 0.0
2018-Apr-18 04:30N 37°58' E 023°37'0 0.0
2018-Apr-18 04:00N 37°58' E 023°37'0 0.0
2018-Apr-18 03:31N 37°58' E 023°37'0 0.0
2018-Apr-18 03:01N 37°58' E 023°37'0 0.0
2018-Apr-18 02:30N 37°58' E 023°37'0 0.0
2018-Apr-18 02:00N 37°58' E 023°37'0 0.0
2018-Apr-18 01:30N 37°58' E 023°37'0 0.0
2018-Apr-18 01:01N 37°58' E 023°37'0 0.0
2018-Apr-18 00:30N 37°58' E 023°37'0 0.0
2018-Apr-18 00:00N 37°58' E 023°37'0 0.0
2018-Apr-17 23:30N 37°58' E 023°37'0 0.0
2018-Apr-17 23:01N 37°58' E 023°37'0 0.0
2018-Apr-17 22:31N 37°58' E 023°37'0 0.0
2018-Apr-17 22:01N 37°58' E 023°37'0 0.0
2018-Apr-17 21:31N 37°58' E 023°37'0 0.0
2018-Apr-17 21:00N 37°58' E 023°37'0 0.0
2018-Apr-17 20:30N 37°58' E 023°37'0 0.0
2018-Apr-17 20:00N 37°58' E 023°37'0 0.0
2018-Apr-17 19:31N 37°58' E 023°37'0 0.0
2018-Apr-17 19:00N 37°58' E 023°37'0 0.0
2018-Apr-17 18:31N 37°58' E 023°37'0 0.0
2018-Apr-17 18:00N 37°58' E 023°37'0 0.0
2018-Apr-17 17:30N 37°58' E 023°37'0 0.0
2018-Apr-17 17:01N 37°58' E 023°37'0 0.0
2018-Apr-17 16:31N 37°58' E 023°37'2 3.3
2018-Apr-17 16:00N 37°57' E 023°35'4 8.1
2018-Apr-17 15:30N 38°01' E 023°32'2 4.1
2018-Apr-17 15:00N 38°02' E 023°31'0 0.0
2018-Apr-17 14:30N 38°02' E 023°31'0 0.0
2018-Apr-17 14:00N 38°02' E 023°31'0 0.0
2018-Apr-17 13:30N 38°02' E 023°31'0 0.0
2018-Apr-17 13:00N 38°02' E 023°31'0 0.0
2018-Apr-17 12:30N 38°02' E 023°31'0 0.0
2018-Apr-17 12:00N 38°02' E 023°31'0 0.0
2018-Apr-17 11:31N 38°02' E 023°31'0 0.0
2018-Apr-17 11:01N 38°02' E 023°31'0 0.0
2018-Apr-17 10:30N 38°02' E 023°31'0 0.0
2018-Apr-17 10:00N 38°02' E 023°31'0 0.0
2018-Apr-17 09:30N 38°02' E 023°31'0 0.0
2018-Apr-17 09:01N 38°02' E 023°31'0 0.0
2018-Apr-17 08:30N 38°02' E 023°31'0 0.0
2018-Apr-17 08:00N 38°02' E 023°31'0 0.0
2018-Apr-17 07:30N 38°02' E 023°31'0 0.0
2018-Apr-17 07:00N 38°02' E 023°31'0 0.0
2018-Apr-17 06:30N 38°02' E 023°31'0 0.0
2018-Apr-17 06:01N 38°02' E 023°31'0 0.0
2018-Apr-17 05:30N 38°02' E 023°31'0 0.0
2018-Apr-17 05:00N 38°02' E 023°31'1 2.7
2018-Apr-17 04:30N 38°01' E 023°32'4 8.8
2018-Apr-17 04:00N 37°57' E 023°34'2 4.0
2018-Apr-17 03:30N 37°58' E 023°37'0 0.0
2018-Apr-17 03:01N 37°58' E 023°37'0 0.0
2018-Apr-17 02:30N 37°58' E 023°37'0 0.0
2018-Apr-17 02:00N 37°58' E 023°37'0 0.0
2018-Apr-17 01:31N 37°58' E 023°37'0 0.0
2018-Apr-17 01:00N 37°58' E 023°37'0 0.0
2018-Apr-17 00:30N 37°58' E 023°37'0 0.0
2018-Apr-17 00:00N 37°58' E 023°37'0 0.0
2018-Apr-16 23:30N 37°58' E 023°37'0 0.0
2018-Apr-16 23:00N 37°58' E 023°37'0 0.0
2018-Apr-16 22:30N 37°58' E 023°37'0 0.0
2018-Apr-16 22:00N 37°58' E 023°37'0 0.0
2018-Apr-16 21:31N 37°58' E 023°37'0 0.0
2018-Apr-16 21:00N 37°58' E 023°37'0 0.0
2018-Apr-16 20:31N 37°58' E 023°37'0 0.0
2018-Apr-16 20:00N 37°58' E 023°37'0 0.0
2018-Apr-16 19:31N 37°58' E 023°37'0 0.0
2018-Apr-16 19:00N 37°58' E 023°37'0 0.0
2018-Apr-16 18:31N 37°58' E 023°37'0 0.0
2018-Apr-16 18:00N 37°58' E 023°37'0 0.0
2018-Apr-16 17:30N 37°58' E 023°37'0 0.0
2018-Apr-16 17:00N 37°58' E 023°37'0 0.0
2018-Apr-16 16:30N 37°58' E 023°37'0 0.0
2018-Apr-16 16:01N 37°58' E 023°37'0 0.0
2018-Apr-16 15:30N 37°58' E 023°37'0 0.0
2018-Apr-16 15:00N 37°58' E 023°37'0 0.0
2018-Apr-16 14:30N 37°58' E 023°37'1 2.7
2018-Apr-16 14:01N 37°56' E 023°37'1 1.5
2018-Apr-16 13:31N 37°57' E 023°38'0 0.0
2018-Apr-16 13:00N 37°57' E 023°38'0 0.0
2018-Apr-16 12:30N 37°57' E 023°38'0 0.0
2018-Apr-16 12:00N 37°57' E 023°38'0 0.4
2018-Apr-16 11:30N 37°56' E 023°38'0 0.9
2018-Apr-16 11:01N 37°57' E 023°38'0 0.0
2018-Apr-16 10:31N 37°57' E 023°38'0 0.0
2018-Apr-16 10:00N 37°57' E 023°38'0 0.0
2018-Apr-16 09:30N 37°57' E 023°38'0 0.0
2018-Apr-16 09:01N 37°57' E 023°38'0 0.6
2018-Apr-16 08:30N 37°57' E 023°38'0 0.3
2018-Apr-16 08:00N 37°57' E 023°38'0 0.0
2018-Apr-16 07:31N 37°57' E 023°38'0 0.0
2018-Apr-16 07:00N 37°57' E 023°38'0 0.0
2018-Apr-16 06:31N 37°57' E 023°38'1 1.7
2018-Apr-16 06:00N 37°56' E 023°37'1 0.1
2018-Apr-15 21:03N 37°58' E 023°37'0 0.0
2018-Apr-15 20:42N 37°58' E 023°37'0 0.0
2018-Apr-15 14:30N 37°58' E 023°37'2 3.8
2018-Apr-15 14:00N 37°57' E 023°34'4 8.2
2018-Apr-15 13:30N 38°01' E 023°32'0 0.5
2018-Apr-15 13:00N 38°01' E 023°32'0 0.0
2018-Apr-15 12:30N 38°01' E 023°32'0 0.1
2018-Apr-15 12:00N 38°01' E 023°32'0 0.8
2018-Apr-15 11:30N 38°01' E 023°33'4 7.4
2018-Apr-15 11:00N 37°57' E 023°33'3 0.2
2018-Apr-14 18:16N 37°58' E 023°37'0 1.9
2018-Apr-14 18:00N 37°57' E 023°36'3 6.4
2018-Apr-14 17:30N 37°59' E 023°33'3 6.5
2018-Apr-14 17:00N 38°02' E 023°36'0 0.0
2018-Apr-14 16:30N 38°02' E 023°36'0 0.0
2018-Apr-14 16:00N 38°02' E 023°36'0 0.0
2018-Apr-14 15:31N 38°02' E 023°36'0 0.0
2018-Apr-14 15:00N 38°02' E 023°36'0 0.0
2018-Apr-14 14:31N 38°02' E 023°36'0 0.0
2018-Apr-14 14:01N 38°02' E 023°36'  

Dump ship's entire track history